Time;durP1;ratioP1;P1;durP2;ratioP2;P2;SDS_P1;SDS_P2;PMS_P1;PMS_P2;Temp;Humidity;BMP_temperature;BMP_pressure;BME280_temperature;BME280_humidity;BME280_pressure;Samples;Min_cycle;Max_cycle;Signal;HPM_P1;HPM_P2
2022/01/31 00:01:36;;;;;;;5.78;1.73;;;;;;;2.74;100.00;101272.19;6198822;28;20054;-75
2022/01/31 00:04:39;;;;;;;13.10;2.72;;;;;;;2.71;100.00;101266.19;6199287;28;20505;-75
2022/01/31 00:07:41;;;;;;;5.95;1.73;;;;;;;2.69;100.00;101258.44;6198783;28;20425;-74
2022/01/31 00:10:42;;;;;;;4.40;1.10;;;;;;;2.68;100.00;101253.25;6198940;28;20050;-75
2022/01/31 00:13:47;;;;;;;10.05;1.75;;;;;;;2.69;100.00;101239.41;6198923;28;20509;-75
2022/01/31 00:16:48;;;;;;;8.27;1.67;;;;;;;2.67;100.00;101226.44;6198458;28;20103;-75
2022/01/31 00:19:51;;;;;;;20.73;2.15;;;;;;;2.68;100.00;101210.00;6198349;28;20050;-74
2022/01/31 00:22:52;;;;;;;8.25;1.73;;;;;;;2.69;100.00;101203.94;6198497;28;20054;-75
2022/01/31 00:25:53;;;;;;;7.55;1.73;;;;;;;2.64;100.00;101197.09;6198819;28;20490;-75
2022/01/31 00:28:55;;;;;;;5.68;3.08;;;;;;;2.63;100.00;101180.66;6197536;28;20053;-75
2022/01/31 00:31:56;;;;;;;3.83;1.98;;;;;;;2.66;100.00;101166.78;6198119;28;20050;-75
2022/01/31 00:34:59;;;;;;;15.23;3.13;;;;;;;2.64;100.00;101153.84;6198397;28;20054;-74
2022/01/31 00:38:00;;;;;;;8.90;1.27;;;;;;;2.61;100.00;101133.13;6198515;28;20204;-75
2022/01/31 00:41:02;;;;;;;17.85;1.50;;;;;;;2.60;100.00;101117.59;6198019;28;20050;-75
2022/01/31 00:44:16;;;;;;;8.07;2.42;;;;;;;2.54;100.00;101087.38;6198552;28;20054;-75
2022/01/31 00:47:21;;;;;;;9.90;1.20;;;;;;;2.54;100.00;101080.50;6198286;28;20548;-75
2022/01/31 00:50:23;;;;;;;7.32;1.33;;;;;;;2.53;100.00;101060.59;6197146;28;20050;-75
2022/01/31 00:53:25;;;;;;;3.55;1.42;;;;;;;2.50;100.00;101039.91;6197763;28;20050;-75
2022/01/31 00:56:26;;;;;;;9.43;2.00;;;;;;;2.47;100.00;101029.56;6197696;28;20517;-75
2022/01/31 00:59:27;;;;;;;6.15;1.80;;;;;;;2.54;100.00;100999.19;6197575;28;20061;-75
2022/01/31 01:02:30;;;;;;;13.88;1.20;;;;;;;2.50;100.00;100980.25;6197453;28;20062;-75
2022/01/31 01:05:33;;;;;;;8.07;1.48;;;;;;;2.56;100.00;100970.66;6198049;28;20089;-75
2022/01/31 01:08:34;;;;;;;6.03;2.08;;;;;;;2.52;100.00;100980.22;6197686;28;20057;-75
2022/01/31 01:11:36;;;;;;;8.05;1.33;;;;;;;2.52;100.00;100988.84;6197544;28;20054;-76
2022/01/31 01:14:37;;;;;;;4.78;1.10;;;;;;;2.53;100.00;100964.59;6196867;28;20057;-75
2022/01/31 01:17:39;;;;;;;13.50;1.52;;;;;;;2.53;100.00;100974.97;6197684;28;20061;-74
2022/01/31 01:20:42;;;;;;;8.18;1.63;;;;;;;2.56;100.00;100986.22;6197176;28;20050;-75
2022/01/31 01:23:44;;;;;;;4.03;1.10;;;;;;;2.65;100.00;100958.38;6197557;28;20057;-74
2022/01/31 01:26:46;;;;;;;11.50;1.88;;;;;;;2.63;100.00;100946.28;6197687;28;20062;-75
2022/01/31 01:29:48;;;;;;;2.58;0.90;;;;;;;2.64;100.00;100945.44;6200132;28;20399;-75
2022/01/31 01:33:00;;;;;;;3.67;1.77;;;;;;;2.64;100.00;100928.13;6202636;28;20050;-75
2022/01/31 01:36:04;;;;;;;6.80;1.40;;;;;;;2.59;100.00;100908.31;6202733;28;20054;-75
2022/01/31 01:39:06;;;;;;;7.70;2.08;;;;;;;2.56;100.00;100893.69;6202198;28;20418;-74
2022/01/31 01:42:08;;;;;;;7.47;2.00;;;;;;;2.55;100.00;100881.59;6201965;28;20050;-75
2022/01/31 01:45:10;;;;;;;6.88;2.70;;;;;;;2.53;100.00;100870.38;6202257;28;20054;-75
2022/01/31 01:48:12;;;;;;;4.40;1.13;;;;;;;2.52;100.00;100861.75;6202163;28;20046;-75
2022/01/31 01:51:15;;;;;;;8.68;1.50;;;;;;;2.53;100.00;100852.22;6201918;28;20520;-75
2022/01/31 01:54:18;;;;;;;5.78;2.55;;;;;;;2.53;100.00;100842.69;6201999;28;20054;-75
2022/01/31 01:57:23;;;;;;;5.10;0.80;;;;;;;2.54;100.00;100818.50;6201905;28;20129;-74
2022/01/31 02:00:26;;;;;;;10.63;1.95;;;;;;;2.65;100.00;100807.03;6194021;28;20498;-75
2022/01/31 02:03:29;;;;;;;9.55;1.75;;;;;;;2.69;100.00;100791.38;6201979;28;20086;-75
2022/01/31 02:06:31;;;;;;;2.88;0.90;;;;;;;2.75;100.00;100774.81;6201732;28;20042;-75
2022/01/31 02:09:42;;;;;;;11.02;2.10;;;;;;;2.66;100.00;100756.84;6201642;28;20417;-75
2022/01/31 02:12:45;;;;;;;5.32;2.05;;;;;;;2.62;100.00;100758.66;6201643;28;20058;-75
2022/01/31 02:15:49;;;;;;;10.38;1.67;;;;;;;2.60;100.00;100738.84;6201451;28;20121;-75
2022/01/31 02:18:53;;;;;;;5.68;1.90;;;;;;;2.57;100.00;100729.34;6201270;28;20061;-75
2022/01/31 02:21:56;;;;;;;9.73;1.55;;;;;;;2.58;100.00;100712.91;6201381;28;20112;-75
2022/01/31 02:24:57;;;;;;;3.83;1.67;;;;;;;2.58;100.00;100694.75;6201493;28;20050;-75
2022/01/31 02:27:58;;;;;;;5.35;1.88;;;;;;;2.58;100.00;100679.19;6200954;28;20042;-75
2022/01/31 02:31:01;;;;;;;8.77;2.33;;;;;;;2.62;100.00;100669.59;6200994;28;20117;-75
2022/01/31 02:34:02;;;;;;;4.20;1.38;;;;;;;2.63;100.00;100655.72;6201135;28;20077;-75
2022/01/31 02:37:06;;;;;;;10.98;1.85;;;;;;;2.70;100.00;100646.94;6201154;28;20053;-75
2022/01/31 02:40:08;;;;;;;3.70;1.27;;;;;;;2.64;100.00;100634.97;6200570;28;20054;-75
2022/01/31 02:43:10;;;;;;;9.70;2.00;;;;;;;2.69;100.00;100616.69;6201117;28;20054;-75
2022/01/31 02:46:11;;;;;;;6.75;2.25;;;;;;;2.64;100.00;100596.06;6201079;28;20054;-75
2022/01/31 02:49:15;;;;;;;6.45;2.10;;;;;;;2.62;100.00;100586.59;6200907;28;20422;-75
2022/01/31 02:52:18;;;;;;;8.65;1.52;;;;;;;2.68;100.00;100592.50;6200429;28;20417;-75
2022/01/31 02:55:19;;;;;;;6.30;1.63;;;;;;;2.68;100.00;100578.66;6200570;28;20141;-74
2022/01/31 02:58:22;;;;;;;5.80;1.80;;;;;;;2.75;100.00;100564.66;6200193;28;20053;-75
2022/01/31 03:01:23;;;;;;;12.35;1.65;;;;;;;2.74;100.00;100556.03;6200167;28;20042;-75
2022/01/31 03:04:25;;;;;;;6.28;1.90;;;;;;;2.74;100.00;100539.59;6200642;28;20062;-75
2022/01/31 03:07:27;;;;;;;15.35;3.25;;;;;;;2.73;100.00;100533.56;6200443;28;20054;-74
2022/01/31 03:10:29;;;;;;;6.60;1.45;;;;;;;2.76;100.00;100523.09;6199984;28;20516;-75
2022/01/31 03:13:30;;;;;;;2.20;1.10;;;;;;;2.78;100.00;100507.50;6200366;28;20046;-75
2022/01/31 03:16:33;;;;;;;3.92;1.30;;;;;;;2.83;100.00;100489.22;6200313;28;20061;-75
2022/01/31 03:19:38;;;;;;;2.95;1.80;;;;;;;2.88;100.00;100469.19;6199884;28;20054;-75
2022/01/31 03:22:40;;;;;;;6.03;2.15;;;;;;;2.89;100.00;100455.31;6200164;28;20148;-75
2022/01/31 03:25:42;;;;;;;2.20;1.13;;;;;;;2.87;100.00;100444.97;6199724;28;20066;-74
2022/01/31 03:28:43;;;;;;;6.15;2.70;;;;;;;2.92;100.00;100434.47;6199815;28;20418;-75
2022/01/31 03:31:44;;;;;;;4.35;1.50;;;;;;;2.91;100.00;100428.44;6199613;28;20049;-75
2022/01/31 03:34:46;;;;;;;4.78;1.50;;;;;;;2.96;100.00;100421.38;6200115;28;20061;-76
2022/01/31 03:37:48;;;;;;;3.10;1.27;;;;;;;2.96;100.00;100411.00;6199539;28;20053;-75
2022/01/31 03:40:50;;;;;;;1.70;1.20;;;;;;;2.98;100.00;100391.03;6199460;28;20059;-75
2022/01/31 03:43:51;;;;;;;5.55;1.65;;;;;;;3.00;100.00;100383.22;6199646;28;20423;-74
2022/01/31 03:46:53;;;;;;;6.10;1.42;;;;;;;2.99;100.00;100371.13;6199495;28;20050;-74
2022/01/31 03:49:54;;;;;;;2.38;1.65;;;;;;;2.91;100.00;100365.31;6199339;28;20053;-74
2022/01/31 03:52:57;;;;;;;7.90;1.73;;;;;;;2.92;100.00;100341.91;6198820;28;20509;-75
2022/01/31 03:55:59;;;;;;;2.35;1.50;;;;;;;2.89;100.00;100335.94;6199576;28;20050;-75
2022/01/31 03:59:00;;;;;;;8.18;1.17;;;;;;;2.92;100.00;100336.72;6198809;28;20046;-74
2022/01/31 04:02:03;;;;;;;9.57;1.67;;;;;;;2.70;100.00;100331.28;6199166;28;20046;-75
2022/01/31 04:05:05;;;;;;;4.05;1.95;;;;;;;2.41;100.00;100318.25;6199078;28;20050;-75
2022/01/31 04:08:09;;;;;;;2.17;1.58;;;;;;;2.17;100.00;100312.81;6199283;28;20054;-75
2022/01/31 04:11:11;;;;;;;3.22;1.92;;;;;;;2.03;100.00;100305.38;6198732;28;20058;-75
2022/01/31 04:14:12;;;;;;;5.88;2.55;;;;;;;1.90;100.00;100295.38;6198839;28;20050;-74
2022/01/31 04:17:13;;;;;;;3.75;1.65;;;;;;;1.84;100.00;100280.81;6198893;28;20433;-74
2022/01/31 04:20:16;;;;;;;1.80;1.40;;;;;;;1.65;100.00;100256.28;6198220;28;20054;-74
2022/01/31 04:23:20;;;;;;;2.33;1.38;;;;;;;1.59;100.00;100259.00;6198895;28;20486;-74
2022/01/31 04:26:21;;;;;;;13.85;2.85;;;;;;;1.52;100.00;100248.81;6198641;28;20208;-73
2022/01/31 04:29:23;;;;;;;2.50;1.88;;;;;;;1.56;100.00;100228.88;6198394;28;20046;-73
2022/01/31 04:32:24;;;;;;;1.15;0.98;;;;;;;1.53;100.00;100228.94;6198302;28;20062;-74
2022/01/31 04:35:26;;;;;;;2.22;1.30;;;;;;;1.47;100.00;100227.34;6198722;28;20053;-74
2022/01/31 04:38:28;;;;;;;3.38;2.05;;;;;;;1.39;100.00;100207.72;6198183;28;20494;-74
2022/01/31 04:41:30;;;;;;;3.08;1.85;;;;;;;1.36;100.00;100200.00;6198002;28;20058;-74
2022/01/31 04:44:31;;;;;;;2.10;1.70;;;;;;;1.38;100.00;100186.16;6198198;28;20387;-74
2022/01/31 04:47:33;;;;;;;2.17;1.55;;;;;;;1.31;100.00;100176.84;6198105;28;20057;-74
2022/01/31 04:50:34;;;;;;;3.13;1.65;;;;;;;1.26;100.00;100168.34;6198135;28;20054;-74
2022/01/31 04:53:37;;;;;;;12.43;2.00;;;;;;;1.33;100.00;100153.53;6197983;28;20058;-73
2022/01/31 04:56:41;;;;;;;4.43;2.22;;;;;;;1.33;100.00;100153.53;6198225;28;20046;-74
2022/01/31 04:59:43;;;;;;;4.22;1.95;;;;;;;1.22;100.00;100144.25;6197277;28;20051;-74
2022/01/31 05:02:45;;;;;;;2.17;1.58;;;;;;;1.22;100.00;100126.16;6197272;28;20054;-73
2022/01/31 05:05:47;;;;;;;6.18;2.30;;;;;;;1.14;100.00;100109.97;6197339;28;20055;-74
2022/01/31 05:08:49;;;;;;;5.70;2.38;;;;;;;1.03;100.00;100111.97;6198001;28;20057;-74
2022/01/31 05:11:51;;;;;;;2.03;1.40;;;;;;;0.94;100.00;100102.69;6197581;28;20050;-74
2022/01/31 05:14:52;;;;;;;2.92;1.30;;;;;;;0.90;100.00;100087.28;6197946;28;20051;-74
2022/01/31 05:17:53;;;;;;;4.20;1.70;;;;;;;0.87;100.00;100082.22;6197718;28;20050;-74
2022/01/31 05:20:55;;;;;;;2.42;1.73;;;;;;;0.78;100.00;100069.50;6197566;28;20069;-74
2022/01/31 05:23:58;;;;;;;3.72;1.90;;;;;;;0.81;100.00;100070.25;6197851;28;20054;-73
2022/01/31 05:26:59;;;;;;;2.85;1.52;;;;;;;0.76;100.00;100049.69;6197332;28;20057;-74
2022/01/31 05:30:00;;;;;;;2.30;1.58;;;;;;;0.68;100.00;100046.44;6197597;28;20494;-74
2022/01/31 05:33:02;;;;;;;3.13;2.17;;;;;;;0.67;100.00;100046.47;6197832;28;20061;-73
2022/01/31 05:36:03;;;;;;;1.40;1.17;;;;;;;0.72;100.00;100040.28;6197054;28;20418;-74
2022/01/31 05:39:06;;;;;;;1.55;0.95;;;;;;;0.66;100.00;100029.25;6197204;28;20050;-74
2022/01/31 05:42:08;;;;;;;2.80;1.73;;;;;;;0.68;100.00;100027.47;6197014;28;20152;-74
2022/01/31 05:45:10;;;;;;;2.05;1.30;;;;;;;0.63;100.00;100012.06;6197466;28;20057;-74
2022/01/31 05:48:11;;;;;;;1.67;1.08;;;;;;;0.64;100.00;100011.22;6197683;28;20050;-73
2022/01/31 05:51:16;;;;;;;2.13;1.55;;;;;;;0.70;100.00;100010.19;6197164;28;20057;-73
2022/01/31 05:54:18;;;;;;;1.48;1.08;;;;;;;0.69;100.00;99995.59;6197113;28;20046;-74
2022/01/31 05:57:20;;;;;;;1.83;1.55;;;;;;;0.74;100.00;99989.41;6196967;28;20053;-74
2022/01/31 06:00:22;;;;;;;5.43;1.23;;;;;;;0.67;100.00;99993.00;6187082;28;20081;-74
2022/01/31 06:03:23;;;;;;;2.30;1.75;;;;;;;0.58;100.00;99980.31;6196973;28;20424;-74
2022/01/31 06:06:24;;;;;;;1.77;1.60;;;;;;;0.50;100.00;99977.94;6197137;28;20057;-74
2022/01/31 06:09:28;;;;;;;1.35;1.13;;;;;;;0.59;100.00;99971.69;6197230;28;20069;-74
2022/01/31 06:12:30;;;;;;;1.83;1.30;;;;;;;0.53;100.00;99960.66;6196749;28;20128;-74
2022/01/31 06:15:31;;;;;;;1.30;1.00;;;;;;;0.61;100.00;99963.91;6199730;28;20537;-74
2022/01/31 06:18:35;;;;;;;2.28;1.60;;;;;;;0.69;100.00;99954.22;6201260;28;20049;-74
2022/01/31 06:21:37;;;;;;;2.38;1.58;;;;;;;0.61;100.00;99946.66;6200343;28;20195;-74
2022/01/31 06:24:40;;;;;;;1.67;1.55;;;;;;;0.44;100.00;99948.78;6201508;28;20042;-74
2022/01/31 06:27:42;;;;;;;1.80;1.20;;;;;;;0.56;100.00;99938.16;6200762;28;20053;-73
2022/01/31 06:30:43;;;;;;;5.88;1.00;;;;;;;0.49;100.00;99934.88;6201160;28;20058;-74
2022/01/31 06:33:45;;;;;;;3.47;1.65;;;;;;;0.56;100.00;99930.41;6201167;28;20533;-74
2022/01/31 06:36:46;;;;;;;1.77;1.08;;;;;;;0.58;100.00;99926.03;6201363;28;20046;-74
2022/01/31 06:39:49;;;;;;;1.15;1.05;;;;;;;0.66;100.00;99928.44;6200217;28;20049;-74
2022/01/31 06:42:50;;;;;;;1.30;1.10;;;;;;;0.66;100.00;99916.34;6189321;28;20450;-74
2022/01/31 06:45:51;;;;;;;3.03;1.25;;;;;;;0.70;100.00;99915.38;6196112;28;20414;-74
2022/01/31 06:48:53;;;;;;;2.22;1.58;;;;;;;0.75;100.00;99905.75;6200884;28;20042;-76
2022/01/31 06:51:54;;;;;;;2.10;1.48;;;;;;;0.76;100.00;99914.34;6200727;28;20105;-75
2022/01/31 06:55:01;;;;;;;2.75;1.77;;;;;;;0.76;100.00;99901.44;6199181;28;20046;-75
2022/01/31 06:58:03;;;;;;;1.90;1.50;;;;;;;0.84;100.00;99894.31;6199698;28;20100;-75
2022/01/31 07:01:04;;;;;;;1.73;1.20;;;;;;;0.88;100.00;99906.28;6198156;28;20046;-75
2022/01/31 07:04:05;;;;;;;1.40;0.88;;;;;;;0.95;100.00;99902.66;6198612;28;20394;-75
2022/01/31 07:07:07;;;;;;;1.80;1.63;;;;;;;1.02;100.00;99893.81;6199160;28;20050;-75
2022/01/31 07:10:11;;;;;;;2.15;1.27;;;;;;;1.04;100.00;99898.09;6200463;28;20046;-74
2022/01/31 07:13:23;;;;;;;1.98;1.70;;;;;;;1.09;100.00;99893.63;6200265;28;20437;-75
2022/01/31 07:16:25;;;;;;;2.10;1.67;;;;;;;1.16;100.00;99879.63;6199692;28;20181;-75
2022/01/31 07:19:29;;;;;;;3.53;2.17;;;;;;;1.20;100.00;99874.34;6199036;28;20046;-75
2022/01/31 07:22:35;;;;;;;2.30;1.42;;;;;;;1.27;100.00;99865.50;6200181;28;20046;-76
2022/01/31 07:25:38;;;;;;;2.20;1.85;;;;;;;1.40;100.00;99875.47;6199371;28;20140;-76
2022/01/31 07:28:40;;;;;;;4.82;1.95;;;;;;;1.48;100.00;99868.34;6199663;28;20417;-75
2022/01/31 07:31:42;;;;;;;3.75;1.90;;;;;;;1.55;100.00;99871.59;6199881;28;20050;-75
2022/01/31 07:34:46;;;;;;;1.83;1.67;;;;;;;1.67;100.00;99861.69;6200027;28;20161;-72
2022/01/31 07:37:47;;;;;;;5.38;1.88;;;;;;;1.76;100.00;99868.31;6194128;28;20046;-72
2022/01/31 07:40:51;;;;;;;2.67;1.60;;;;;;;1.87;100.00;99861.06;6199414;28;20042;-73
2022/01/31 07:43:52;;;;;;;4.40;2.40;;;;;;;1.95;100.00;99860.81;6197341;28;20057;-73
2022/01/31 07:46:54;;;;;;;3.85;1.80;;;;;;;2.03;100.00;99859.66;6196621;28;20053;-74
2022/01/31 07:49:55;;;;;;;2.85;1.85;;;;;;;2.12;100.00;99868.03;6196877;28;20042;-74
2022/01/31 07:52:56;;;;;;;1.50;1.40;;;;;;;2.16;100.00;99862.72;6196235;28;20417;-74
2022/01/31 07:56:00;;;;;;;3.33;1.70;;;;;;;2.22;100.00;99856.47;6197609;28;20061;-72
2022/01/31 07:59:02;;;;;;;3.20;2.03;;;;;;;2.25;100.00;99854.63;6198301;28;20528;-73
2022/01/31 08:02:04;;;;;;;4.32;2.47;;;;;;;2.32;100.00;99854.41;6199082;28;20061;-74
2022/01/31 08:05:07;;;;;;;3.25;1.50;;;;;;;2.37;100.00;99852.53;6199107;28;20065;-73
2022/01/31 08:08:08;;;;;;;3.28;1.85;;;;;;;2.44;100.00;99862.63;6199231;28;20057;-73
2022/01/31 08:11:11;;;;;;;1.85;1.33;;;;;;;2.47;100.00;99859.94;6198492;28;20054;-73
2022/01/31 08:14:16;;;;;;;0.60;0.60;;;;;;;2.54;100.00;99855.38;6198917;28;20414;-74
2022/01/31 08:17:18;;;;;;;1.58;1.33;;;;;;;2.54;100.00;99855.38;6198875;28;20521;-74
2022/01/31 08:20:19;;;;;;;2.95;1.67;;;;;;;2.61;100.00;99854.25;6198367;28;20418;-73
2022/01/31 08:23:20;;;;;;;1.60;1.40;;;;;;;2.62;100.00;99858.53;6198639;28;20425;-74
2022/01/31 08:26:23;;;;;;;2.90;1.42;;;;;;;2.62;100.00;99850.75;6197826;28;20046;-74
2022/01/31 08:29:30;;;;;;;2.42;1.63;;;;;;;2.79;100.00;99852.78;6196511;28;20414;-74
2022/01/31 08:32:43;;;;;;;2.40;2.03;;;;;;;2.82;100.00;99851.78;6196662;28;20054;-74
2022/01/31 08:35:50;;;;;;;1.55;1.45;;;;;;;2.87;100.00;99855.94;6194814;28;20056;-73
2022/01/31 08:38:52;;;;;;;3.92;1.50;;;;;;;3.05;100.00;99857.88;6196632;28;20046;-74
2022/01/31 08:41:55;;;;;;;2.17;1.40;;;;;;;3.15;100.00;99857.53;6196677;28;20046;-74
2022/01/31 08:44:56;;;;;;;6.78;1.65;;;;;;;3.30;100.00;99851.75;6198535;28;20054;-74
2022/01/31 08:47:58;;;;;;;2.08;1.50;;;;;;;3.31;100.00;99846.47;6195933;28;20054;-73
2022/01/31 08:50:59;;;;;;;2.55;1.40;;;;;;;3.37;100.00;99837.63;6197735;28;20521;-73
2022/01/31 08:54:01;;;;;;;1.90;1.52;;;;;;;3.46;100.00;99845.06;6198272;28;20046;-74
2022/01/31 08:57:04;;;;;;;1.80;1.30;;;;;;;3.54;100.00;99857.75;6197857;28;20391;-75
2022/01/31 09:00:07;;;;;;;3.03;1.15;;;;;;;3.54;100.00;99861.22;6197860;28;20057;-74
2022/01/31 09:03:22;;;;;;;5.90;1.67;;;;;;;3.55;100.00;99862.91;6198141;28;20046;-74
2022/01/31 09:06:26;;;;;;;2.10;1.40;;;;;;;3.52;100.00;99854.38;6198257;28;20057;-74
2022/01/31 09:09:29;;;;;;;2.22;1.50;;;;;;;3.53;100.00;99858.66;6197895;28;20054;-74
2022/01/31 09:12:35;;;;;;;1.92;1.20;;;;;;;3.55;100.00;99859.47;6197837;28;20053;-75
2022/01/31 09:15:36;;;;;;;1.95;1.27;;;;;;;3.59;100.00;99849.78;6197919;28;20066;-75
2022/01/31 09:18:37;;;;;;;1.77;1.30;;;;;;;3.59;100.00;99855.84;6197605;28;20057;-74
2022/01/31 09:21:39;;;;;;;7.93;1.40;;;;;;;3.70;100.00;99858.84;6197614;28;20046;-74
2022/01/31 09:24:41;;;;;;;0.90;0.80;;;;;;;3.60;100.00;99861.88;6198022;28;20421;-74
2022/01/31 09:27:43;;;;;;;1.65;1.02;;;;;;;3.67;100.00;99856.34;6197377;28;20046;-74
2022/01/31 09:30:47;;;;;;;2.15;1.15;;;;;;;3.73;100.00;99858.75;6196977;28;20051;-74
2022/01/31 09:33:48;;;;;;;0.90;0.70;;;;;;;3.74;100.00;99860.41;6197860;28;20136;-75
2022/01/31 09:36:49;;;;;;;2.08;1.42;;;;;;;3.86;100.00;99866.03;6197858;28;20062;-74
2022/01/31 09:39:52;;;;;;;1.67;1.10;;;;;;;3.85;100.00;99859.97;6197427;28;20521;-74
2022/01/31 09:43:11;;;;;;;6.38;1.00;;;;;;;3.94;100.00;99864.81;6197644;28;20054;-74
2022/01/31 09:46:44;;;;;;;2.25;0.73;;;;;;;3.95;100.00;99871.72;6197724;28;20083;-75
2022/01/31 09:49:46;;;;;;;2.55;0.88;;;;;;;4.04;100.00;99871.34;6199186;28;20062;-73
2022/01/31 09:52:47;;;;;;;0.98;0.93;;;;;;;4.13;100.00;99877.06;6201633;28;20046;-74
2022/01/31 09:55:49;;;;;;;0.85;0.70;;;;;;;4.04;100.00;99876.56;6201699;28;20050;-75
2022/01/31 09:58:53;;;;;;;0.95;0.77;;;;;;;3.99;100.00;99875.03;6201532;28;20050;-75
2022/01/31 10:01:57;;;;;;;0.93;0.60;;;;;;;3.95;100.00;99879.53;6201615;28;20042;-75
2022/01/31 10:04:58;;;;;;;1.48;0.50;;;;;;;4.08;100.00;99892.84;6202184;28;20191;-74
2022/01/31 10:08:10;;;;;;;1.35;0.47;;;;;;;4.20;100.00;99891.53;6201833;28;20121;-75
2022/01/31 10:11:27;;;;;;;1.23;0.55;;;;;;;4.33;100.00;99896.16;6201698;28;20069;-75
2022/01/31 10:18:00;;;;;;;0.20;0.20;;;;;;;4.46;100.00;99899.09;6202216;28;20093;-75
2022/01/31 10:21:01;;;;;;;0.30;0.30;;;;;;;4.55;100.00;99903.06;6201575;28;20049;-74
2022/01/31 10:24:15;;;;;;;0.30;0.28;;;;;;;4.62;100.00;99901.03;6201644;28;20050;-75
2022/01/31 10:27:19;;;;;;;0.10;0.10;;;;;;;4.58;100.00;99903.75;6201357;28;20494;-75
2022/01/31 10:30:25;;;;;;;2.05;0.80;;;;;;;4.64;100.00;99912.25;6201144;28;20050;-75
2022/01/31 10:33:30;;;;;;;1.23;0.50;;;;;;;4.61;100.00;99915.81;6201250;28;20125;-75
2022/01/31 10:36:35;;;;;;;0.98;0.38;;;;;;;4.62;100.00;99925.31;6201267;28;20057;-75
2022/01/31 10:50:38;;;;;;;0.65;0.60;;;;;;;4.57;100.00;99935.06;6201205;28;20050;-75
2022/01/31 10:53:12;;;;;;;0.28;0.28;;;;;;;4.58;100.00;99940.19;6170196;28;20050;-76
2022/01/31 10:56:14;;;;;;;1.05;0.40;;;;;;;4.54;100.00;99928.25;6200740;28;20042;-76
2022/01/31 10:59:17;;;;;;;2.35;0.52;;;;;;;4.68;100.00;99934.59;6200927;28;20042;-76
2022/01/31 11:02:22;;;;;;;0.88;0.40;;;;;;;4.67;100.00;99943.31;6200597;28;20048;-76
2022/01/31 11:05:24;;;;;;;2.92;0.47;;;;;;;4.67;100.00;99945.94;6200852;28;20060;-75
2022/01/31 11:08:25;;;;;;;0.22;0.22;;;;;;;4.71;100.00;99944.88;6200662;28;20047;-75
2022/01/31 11:11:27;;;;;;;0.75;0.50;;;;;;;4.85;100.00;99939.94;6200579;28;20054;-75
2022/01/31 11:14:29;;;;;;;0.20;0.20;;;;;;;4.87;100.00;99940.75;6200458;28;20465;-75
2022/01/31 11:17:35;;;;;;;0.30;0.30;;;;;;;4.97;100.00;99951.59;6200737;28;20054;-76
2022/01/31 11:20:40;;;;;;;5.15;0.40;;;;;;;5.06;100.00;99949.44;6199884;28;20054;-76
2022/01/31 11:23:49;;;;;;;5.28;0.40;;;;;;;4.97;100.00;99957.66;6200726;28;20081;-75
2022/01/31 11:26:55;;;;;;;0.28;0.28;;;;;;;4.94;100.00;99952.56;6199961;28;20058;-75
2022/01/31 11:29:56;;;;;;;0.28;0.17;;;;;;;4.97;100.00;99967.22;6199950;28;20054;-75
2022/01/31 11:32:59;;;;;;;3.17;0.55;;;;;;;5.07;100.00;99966.75;6200014;28;20502;-76
2022/01/31 11:36:01;;;;;;;0.75;0.38;;;;;;;5.02;100.00;99983.50;6200164;28;20482;-75
2022/01/31 11:39:06;;;;;;;1.30;0.85;;;;;;;4.97;100.00;99968.06;6199962;28;20047;-75
2022/01/31 11:42:08;;;;;;;0.82;0.40;;;;;;;5.02;100.00;99978.28;6200066;28;20053;-75
2022/01/31 11:45:14;;;;;;;1.52;0.50;;;;;;;5.07;100.00;99982.38;6200096;28;20061;-75
2022/01/31 11:48:22;;;;;;;1.98;0.52;;;;;;;5.27;100.00;99986.72;6199846;28;20461;-76
2022/01/31 11:51:24;;;;;;;0.70;0.55;;;;;;;5.24;100.00;99986.84;6199641;28;20046;-76
2022/01/31 11:54:25;;;;;;;1.10;0.40;;;;;;;5.30;100.00;99996.16;6199533;28;20055;-76
2022/01/31 11:57:29;;;;;;;1.55;0.75;;;;;;;5.23;100.00;100003.41;6199054;28;20425;-75
2022/01/31 12:00:30;;;;;;;1.25;0.40;;;;;;;5.30;100.00;100004.81;6198887;28;20414;-75
2022/01/31 12:03:36;;;;;;;0.57;0.50;;;;;;;5.27;100.00;100010.19;6199414;28;20137;-76
2022/01/31 12:06:37;;;;;;;0.70;0.50;;;;;;;5.29;100.00;100020.53;6199229;28;20486;-76
2022/01/31 12:09:41;;;;;;;0.98;0.55;;;;;;;5.29;100.00;100021.38;6199111;28;20569;-75
2022/01/31 12:12:49;;;;;;;2.83;0.90;;;;;;;5.26;100.00;100016.28;6198693;28;20051;-75
2022/01/31 12:16:04;;;;;;;3.00;0.93;;;;;;;5.22;100.00;100019.97;6198089;28;20069;-75
2022/01/31 12:19:32;;;;;;;1.23;0.40;;;;;;;5.24;100.00;100019.88;6197165;28;20054;-75
2022/01/31 12:22:41;;;;;;;1.63;0.60;;;;;;;5.24;100.00;100020.72;6198166;28;20058;-75
2022/01/31 12:25:43;;;;;;;1.13;0.80;;;;;;;5.35;100.00;100025.47;6195597;28;20054;-75
2022/01/31 12:28:48;;;;;;;1.83;0.93;;;;;;;5.29;100.00;100023.13;6197162;28;20046;-75
2022/01/31 12:31:51;;;;;;;1.80;0.80;;;;;;;5.32;100.00;100031.66;6196682;28;20046;-75
2022/01/31 12:34:56;;;;;;;3.70;0.85;;;;;;;5.36;100.00;100029.78;6197138;28;20046;-75
2022/01/31 12:37:57;;;;;;;1.00;0.70;;;;;;;5.43;100.00;100028.59;6194701;28;20450;-77
2022/01/31 12:41:04;;;;;;;2.13;1.30;;;;;;;5.36;100.00;100032.38;6196731;28;20053;-76
2022/01/31 12:44:45;;;;;;;2.28;0.90;;;;;;;5.35;100.00;100046.31;6197159;28;20600;-76
2022/01/31 12:48:12;;;;;;;2.63;0.90;;;;;;;5.44;100.00;100055.47;6195050;28;20050;-77
2022/01/31 12:51:15;;;;;;;1.45;1.13;;;;;;;5.41;100.00;100050.44;6197123;28;20058;-76
2022/01/31 12:54:21;;;;;;;1.52;1.00;;;;;;;5.33;100.00;100061.16;6194761;28;20070;-76
2022/01/31 12:57:22;;;;;;;2.45;1.13;;;;;;;5.38;100.00;100067.03;6196141;28;20606;-76
2022/01/31 13:00:33;;;;;;;3.35;1.45;;;;;;;5.33;100.00;100076.78;6196220;28;20050;-76
2022/01/31 13:03:37;;;;;;;2.10;1.23;;;;;;;5.42;100.00;100084.22;6191432;28;20099;-76
2022/01/31 13:06:43;;;;;;;7.65;1.38;;;;;;;5.36;100.00;100094.91;6196247;28;20050;-75
2022/01/31 13:10:00;;;;;;;2.97;0.65;;;;;;;5.31;100.00;100096.84;6207614;28;20046;-78
2022/01/31 13:13:08;;;;;;;0.90;0.75;;;;;;;5.34;100.00;100104.53;6201238;28;20038;-77
2022/01/31 13:16:12;;;;;;;4.78;1.00;;;;;;;5.42;100.00;100099.84;6200459;28;20445;-76
2022/01/31 13:19:20;;;;;;;2.40;0.98;;;;;;;5.46;100.00;100114.44;6198093;28;20065;-76
2022/01/31 13:22:28;;;;;;;1.73;1.25;;;;;;;5.47;100.00;100107.47;6198120;28;20077;-77
2022/01/31 13:25:31;;;;;;;1.42;0.57;;;;;;;5.47;100.00;100107.47;6200101;28;20188;-76
2022/01/31 13:28:33;;;;;;;4.32;0.85;;;;;;;5.54;100.00;100109.75;6201847;28;20058;-76
2022/01/31 13:31:42;;;;;;;1.48;0.85;;;;;;;5.44;100.00;100103.22;6202605;28;20047;-76
2022/01/31 13:34:45;;;;;;;4.88;1.23;;;;;;;5.33;100.00;100115.88;6203340;28;20053;-76
2022/01/31 13:37:52;;;;;;;2.13;0.80;;;;;;;5.29;100.00;100120.34;6203051;28;20055;-76
2022/01/31 13:40:56;;;;;;;0.40;0.40;;;;;;;5.28;100.00;100120.44;6202888;28;20058;-77
2022/01/31 13:44:01;;;;;;;1.92;1.00;;;;;;;5.35;100.00;100132.28;6202251;28;20090;-77
2022/01/31 13:47:03;;;;;;;0.57;0.57;;;;;;;5.29;100.00;100146.41;6203368;28;20046;-77
2022/01/31 13:50:15;;;;;;;1.67;0.90;;;;;;;5.20;100.00;100130.31;6202937;28;20112;-77
2022/01/31 13:53:19;;;;;;;3.22;0.85;;;;;;;5.09;100.00;100151.59;6203316;28;20134;-78
2022/01/31 13:56:21;;;;;;;1.13;0.90;;;;;;;4.94;100.00;100145.22;6202550;28;20042;-78
2022/01/31 13:59:26;;;;;;;2.47;1.38;;;;;;;4.78;100.00;100149.34;6203179;28;20050;-77
2022/01/31 14:02:27;;;;;;;3.17;1.67;;;;;;;4.66;100.00;100155.03;6201609;28;20501;-77
2022/01/31 14:05:29;;;;;;;2.85;1.38;;;;;;;4.56;100.00;100175.34;6202231;28;20054;-77
2022/01/31 14:08:39;;;;;;;2.63;1.80;;;;;;;4.36;100.00;100183.03;6202140;28;20073;-76
2022/01/31 14:11:42;;;;;;;3.70;1.77;;;;;;;4.14;100.00;100176.03;6201906;28;20046;-76
2022/01/31 14:14:44;;;;;;;1.88;1.08;;;;;;;3.99;100.00;100190.41;6201889;28;20046;-76
2022/01/31 14:17:46;;;;;;;1.83;1.23;;;;;;;3.87;100.00;100187.41;6201654;28;20050;-76
2022/01/31 14:20:55;;;;;;;5.00;1.40;;;;;;;3.84;100.00;100196.16;6201343;28;20050;-76
2022/01/31 14:24:00;;;;;;;2.47;1.30;;;;;;;3.72;100.00;100206.97;6201750;28;20525;-76
2022/01/31 14:27:03;;;;;;;2.88;1.48;;;;;;;3.71;100.00;100205.28;6201716;28;20050;-77
2022/01/31 14:30:05;;;;;;;4.43;1.65;;;;;;;3.64;100.00;100220.22;6201206;28;20117;-78
2022/01/31 14:33:08;;;;;;;2.35;1.00;;;;;;;3.63;100.00;100226.31;6202084;28;20050;-77